Aviation Digital Data Service (ADDS)

Output produced by METARs form (1728 UTC 16 June 2019)
found at http://www.aviationweather.gov/metar/data/
 
ESSA 161720Z 23006KT CAVOK 24/09 Q1013 NOSIG
TAF ESSA 161130Z 1612/1712 21008KT CAVOK 
     BECMG 1707/1709 27012KT
       
ESNX 161720Z 26008KT CAVOK 23/06 Q1009
TAF ESNX 161430Z 1615/1621 25008KT CAVOK
       
ESSD 161720Z AUTO 19006KT 9999 OVC098/// 23/11 Q1013
ESSB 161720Z 20009KT CAVOK 24/07 Q1014
TAF ESSB 161430Z 1615/1620 23005KT CAVOK
       
ESNG 161720Z 07005KT 360V120 CAVOK 24/01 Q1008
TAF ESNG 161430Z 1615/1622 07005KT CAVOK
       
ESMT 161720Z AUTO 25006KT 9999 NCD 17/13 Q1018
TAF ESMT 161401Z 1615/1621 29010KT 9999 FEW020
       
ESUT 161720Z AUTO 32004KT 9999 NCD 22/08 Q1010
ESGJ 161720Z AUTO 28008KT 9999 BKN049/// 18/13 Q1017
ESPA 161720Z 15008KT CAVOK 19/11 Q1009
TAF ESPA 161430Z 1615/1623 18008KT CAVOK
       
ESMQ 161720Z 21004KT CAVOK 22/15 Q1015
TAF ESMQ 161430Z 1615/1622 VRB02KT CAVOK 
     BECMG 1615/1617 28010KT
       
ESIA 161720Z AUTO 27009KT 9999 SCT017/// BKN064/// 18/14 Q1016
ESOK 161720Z 24011KT 9999 BKN019 18/14 Q1015
TAF ESOK 161430Z 1615/1620 21008KT CAVOK 
     PROB40 1615/1617 SHRA BKN040CB
       
ESNQ 161720Z 07005KT 030V110 CAVOK 21/00 Q1009
TAF ESNQ 161430Z 1615/1623 36005KT CAVOK
       
ESNK 161720Z AUTO 15010KT 9999 NCD 22/10 Q1010
TAF ESNK 161330Z 1614/1616 17008KT CAVOK
       
ESMK 161720Z 29009KT CAVOK 19/12 Q1018
TAF ESMK 161401Z 1615/1620 29010KT 9999 SCT020
       
ESMX 161720Z 29009KT 260V320 9999 SCT014 BKN040 17/16 Q1017
TAF AMD ESMX 161653Z 1616/1621 27010KT 9999 SCT015 BKN050 
     TEMPO 1616/1618 BKN009
       
ESSP 161720Z 23007KT 180V260 CAVOK 23/11 Q1014
TAF ESSP 161430Z 1615/1620 14008KT CAVOK 
     BECMG 1618/1620 27010KT
       
ESGG 161720Z 23009KT CAVOK 17/09 Q1018
TAF ESGG 161130Z 1612/1712 27008KT 2000 -RADZ BR OVC004 
     BECMG 1612/1613 9999 NSW BKN008 
     BECMG 1613/1615 SCT020 
     PROB40 1702/1705 4000 BR BKN004
       
ESTL 161720Z AUTO 30008KT 9999 FEW087/// 18/12 Q1019
ESNL 161720Z 25007KT CAVOK 26/07 Q1009
ESCF 161720Z AUTO 26011KT 9999 OVC060/// 19/15 Q1015
ESKM 161720Z AUTO 21006KT 160V240 9999 SCT057/// OVC072/// 22/12 Q1013
ESOE 161720Z AUTO 25007KT 200V290 9999 OVC065/// 19/14 Q1015
TAF ESOE 161430Z 1615/1618 20007KT CAVOK 
     BECMG 1615/1617 27012KT
       
ESNO 161720Z AUTO 20009KT 9999 NCD 21/07 Q1011
TAF ESNO 161530Z 1616/1622 19012KT CAVOK 
     BECMG 1619/1621 VRB02KT
       
ESUP 161720Z AUTO 06007KT 010V090 9999 NCD 22/01 Q1009
ESDF 161720Z 30010KT 9999 FEW017 BKN060 18/15 Q1017
TAF ESDF 161430Z 1615/1622 29010KT 9999 SCT020 BKN060 
     PROB40 1615/1617 BKN012
       
ESSL 161720Z 27012KT CAVOK 20/15 Q1015
TAF ESSL 161230Z 1613/1616 16005KT CAVOK
       
ESIB 161720Z AUTO 24013KT 9999 FEW190/// 18/10 Q1016
ESKN 161720Z 17009KT CAVOK 22/10 Q1014
TAF ESKN 161130Z 1612/1712 13008KT CAVOK 
     BECMG 1707/1709 27012KT
       
ESNS 161720Z 18006KT CAVOK 24/12 Q1009
TAF ESNS 161430Z 1615/1622 20005KT CAVOK
       
ESGR 161720Z AUTO 26006KT 9999 FEW018/// SCT027/// BKN062/// 18/13 Q1016
ESMS 161720Z 30007KT CAVOK 18/11 Q1019
TAF ESMS 161114Z 1612/1712 30015KT 9999 FEW020 
     BECMG 1618/1620 26005KT 
     PROB40 1701/1705 4000 BR
       
ESNN 161720Z 12008KT CAVOK 19/10 Q1011
TAF ESNN 161430Z 1615/1622 14010KT CAVOK
       
ESND 161720Z AUTO 22007KT 200V260 9999 OVC092/// 22/07 Q1012
ESST 161720Z AUTO 21008KT 170V250 9999 OVC042/// 20/15 Q1014
ESGT 161720Z 24010KT CAVOK 18/08 Q1017
TAF ESGT 161530Z 1616/1620 24010KT CAVOK
       
ESNU 161720Z 17007KT CAVOK 19/10 Q1010
TAF ESNU 161430Z 1615/1624 18008KT CAVOK
       
ESCM 161720Z AUTO 22003KT 9999 NCD 23/12 Q1013
ESOW 161720Z 21005KT CAVOK 25/12 Q1013
TAF ESOW 161630Z 1617/1619 18005KT CAVOK
       
ESPE 161720Z AUTO 29010KT 9999 -RA BKN088/// 23/10 Q1008
ESNV 161720Z 24007KT 180V280 CAVOK 25/06 Q1009
ESSV 161720Z 35006KT CAVOK 20/12 Q1015
TAF ESSV 161430Z 1615/1622 11008KT CAVOK